<?xml version="1.0" encoding="UTF-8" standalone="no" ?>
<gpx xmlns="http://www.topografix.com/GPX/1/1" xmlns:xsi="http://www.w3.org/2001/XMLSchema-instance" xsi:schemaLocation="http://www.topografix.com/GPX/1/1 http://www.topografix.com/GPX/1/1/gpx.xsd" version="1.1" creator="VisuGPX - https://www.visugpx.com">
  <metadata>
    <name>Transcaucasie: Géorgie + Arménie</name>
  </metadata>
  <trk>
    <name><![CDATA[Tour d'Europe: étape 476]]></name>
    <extensions>
      <line xmlns="http://www.topografix.com/GPX/gpx_style/0/2">
        <color>FFFF00</color>
        <width>4</width>
      </line>
    </extensions>
    <trkseg>
      <trkpt lat="41.69053" lon="44.80136">
        <ele>454.177229</ele>
        <time>2021-10-17T05:00:00.028Z</time>
      </trkpt>
      <trkpt lat="41.69117" lon="44.80172">
        <ele>452.931093</ele>
        <time>2021-10-17T05:07:41.718Z</time>
      </trkpt>
      <trkpt lat="41.69042" lon="44.80391">
        <ele>442.903926</ele>
        <time>2021-10-17T05:08:56.761Z</time>
      </trkpt>
      <trkpt lat="41.69032" lon="44.80608">
        <ele>433.66934</ele>
        <time>2021-10-17T05:10:03.717Z</time>
      </trkpt>
      <trkpt lat="41.68986" lon="44.80864">
        <ele>430.997933</ele>
        <time>2021-10-17T05:19:56.722Z</time>
      </trkpt>
      <trkpt lat="41.68909" lon="44.81105">
        <ele>422.869484</ele>
        <time>2021-10-17T05:20:57.728Z</time>
      </trkpt>
      <trkpt lat="41.68875" lon="44.81388">
        <ele>425.900152</ele>
        <time>2021-10-17T05:21:53.721Z</time>
      </trkpt>
      <trkpt lat="41.68823" lon="44.81693">
        <ele>419.997764</ele>
        <time>2021-10-17T05:22:43.726Z</time>
      </trkpt>
      <trkpt lat="41.68705" lon="44.81937">
        <ele>412.693193</ele>
        <time>2021-10-17T05:23:33.732Z</time>
      </trkpt>
      <trkpt lat="41.68528" lon="44.82105">
        <ele>414.803651</ele>
        <time>2021-10-17T05:24:46.732Z</time>
      </trkpt>
      <trkpt lat="41.68354" lon="44.82289">
        <ele>420.565729</ele>
        <time>2021-10-17T05:25:44.745Z</time>
      </trkpt>
      <trkpt lat="41.68145" lon="44.82388">
        <ele>425.973794</ele>
        <time>2021-10-17T05:26:32.737Z</time>
      </trkpt>
      <trkpt lat="41.67946" lon="44.8246">
        <ele>425.693249</ele>
        <time>2021-10-17T05:27:42.728Z</time>
      </trkpt>
      <trkpt lat="41.67754" lon="44.8258">
        <ele>416.500696</ele>
        <time>2021-10-17T05:28:35.717Z</time>
      </trkpt>
      <trkpt lat="41.67594" lon="44.82761">
        <ele>409.6545</ele>
        <time>2021-10-17T05:29:26.729Z</time>
      </trkpt>
      <trkpt lat="41.67482" lon="44.82995">
        <ele>410.00858</ele>
        <time>2021-10-17T05:30:14.712Z</time>
      </trkpt>
      <trkpt lat="41.67332" lon="44.832">
        <ele>413.123663</ele>
        <time>2021-10-17T05:31:09.774Z</time>
      </trkpt>
      <trkpt lat="41.67226" lon="44.83424">
        <ele>423.201382</ele>
        <time>2021-10-17T05:32:32.719Z</time>
      </trkpt>
      <trkpt lat="41.67151" lon="44.83679">
        <ele>427.365423</ele>
        <time>2021-10-17T05:33:50.734Z</time>
      </trkpt>
      <trkpt lat="41.67106" lon="44.83968">
        <ele>421.096625</ele>
        <time>2021-10-17T05:34:42.762Z</time>
      </trkpt>
      <trkpt lat="41.67084" lon="44.84275">
        <ele>423.186362</ele>
        <time>2021-10-17T05:35:37.709Z</time>
      </trkpt>
      <trkpt lat="41.67062" lon="44.84558">
        <ele>425.143084</ele>
        <time>2021-10-17T05:36:21.745Z</time>
      </trkpt>
      <trkpt lat="41.67029" lon="44.84843">
        <ele>420.023342</ele>
        <time>2021-10-17T05:37:17.736Z</time>
      </trkpt>
      <trkpt lat="41.66991" lon="44.8519">
        <ele>410.96965</ele>
        <time>2021-10-17T05:37:57.728Z</time>
      </trkpt>
      <trkpt lat="41.66919" lon="44.85445">
        <ele>412.353499</ele>
        <time>2021-10-17T05:38:46.770Z</time>
      </trkpt>
      <trkpt lat="41.66869" lon="44.8571">
        <ele>409.120555</ele>
        <time>2021-10-17T05:39:57.756Z</time>
      </trkpt>
      <trkpt lat="41.66838" lon="44.85991">
        <ele>395.020655</ele>
        <time>2021-10-17T06:05:43.752Z</time>
      </trkpt>
      <trkpt lat="41.66787" lon="44.86289">
        <ele>389.977853</ele>
        <time>2021-10-17T06:06:23.733Z</time>
      </trkpt>
      <trkpt lat="41.66689" lon="44.86565">
        <ele>400.791723</ele>
        <time>2021-10-17T06:07:51.724Z</time>
      </trkpt>
      <trkpt lat="41.66588" lon="44.86803">
        <ele>414.415995</ele>
        <time>2021-10-17T06:09:06.753Z</time>
      </trkpt>
      <trkpt lat="41.66484" lon="44.87032">
        <ele>421.502222</ele>
        <time>2021-10-17T06:10:22.729Z</time>
      </trkpt>
      <trkpt lat="41.66372" lon="44.87324">
        <ele>424.429712</ele>
        <time>2021-10-17T06:13:31.757Z</time>
      </trkpt>
      <trkpt lat="41.66288" lon="44.87601">
        <ele>414.416407</ele>
        <time>2021-10-17T06:15:32.774Z</time>
      </trkpt>
      <trkpt lat="41.66215" lon="44.87897">
        <ele>407.827274</ele>
        <time>2021-10-17T06:16:12.773Z</time>
      </trkpt>
      <trkpt lat="41.66141" lon="44.8822">
        <ele>397.31909</ele>
        <time>2021-10-17T06:18:58.723Z</time>
      </trkpt>
      <trkpt lat="41.66056" lon="44.88508">
        <ele>405.72259</ele>
        <time>2021-10-17T06:19:41.722Z</time>
      </trkpt>
      <trkpt lat="41.65949" lon="44.88872">
        <ele>409.754951</ele>
        <time>2021-10-17T06:20:21.723Z</time>
      </trkpt>
      <trkpt lat="41.65818" lon="44.89075">
        <ele>418.995702</ele>
        <time>2021-10-17T06:21:27.736Z</time>
      </trkpt>
      <trkpt lat="41.65724" lon="44.89345">
        <ele>416.718607</ele>
        <time>2021-10-17T06:22:30.706Z</time>
      </trkpt>
      <trkpt lat="41.65578" lon="44.89578">
        <ele>418.057118</ele>
        <time>2021-10-17T06:23:27.724Z</time>
      </trkpt>
      <trkpt lat="41.65446" lon="44.89809">
        <ele>419.179791</ele>
        <time>2021-10-17T06:24:29.734Z</time>
      </trkpt>
      <trkpt lat="41.65319" lon="44.90075">
        <ele>419.043888</ele>
        <time>2021-10-17T06:25:28.733Z</time>
      </trkpt>
      <trkpt lat="41.65208" lon="44.90336">
        <ele>415.358397</ele>
        <time>2021-10-17T06:26:20.742Z</time>
      </trkpt>
      <trkpt lat="41.65042" lon="44.9047">
        <ele>425.3423</ele>
        <time>2021-10-17T06:27:36.707Z</time>
      </trkpt>
      <trkpt lat="41.64937" lon="44.90252">
        <ele>438.01298</ele>
        <time>2021-10-17T06:29:11.724Z</time>
      </trkpt>
      <trkpt lat="41.64805" lon="44.90034">
        <ele>448.804968</ele>
        <time>2021-10-17T06:30:40.725Z</time>
      </trkpt>
      <trkpt lat="41.64677" lon="44.89822">
        <ele>458.764812</ele>
        <time>2021-10-17T06:32:13.720Z</time>
      </trkpt>
      <trkpt lat="41.6456" lon="44.89595">
        <ele>466.897361</ele>
        <time>2021-10-17T06:33:41.758Z</time>
      </trkpt>
      <trkpt lat="41.64455" lon="44.89367">
        <ele>464.531291</ele>
        <time>2021-10-17T06:35:08.721Z</time>
      </trkpt>
      <trkpt lat="41.64361" lon="44.89146">
        <ele>466.796179</ele>
        <time>2021-10-17T06:36:25.731Z</time>
      </trkpt>
      <trkpt lat="41.64273" lon="44.88914">
        <ele>470.941871</ele>
        <time>2021-10-17T06:37:51.752Z</time>
      </trkpt>
      <trkpt lat="41.64188" lon="44.88677">
        <ele>476.14746</ele>
        <time>2021-10-17T06:39:14.738Z</time>
      </trkpt>
      <trkpt lat="41.64107" lon="44.88437">
        <ele>483.4018</ele>
        <time>2021-10-17T06:40:39.737Z</time>
      </trkpt>
      <trkpt lat="41.64021" lon="44.88196">
        <ele>481.96839</ele>
        <time>2021-10-17T06:42:05.742Z</time>
      </trkpt>
      <trkpt lat="41.63943" lon="44.87944">
        <ele>491.626439</ele>
        <time>2021-10-17T06:43:37.742Z</time>
      </trkpt>
      <trkpt lat="41.63871" lon="44.87705">
        <ele>501.56029</ele>
        <time>2021-10-17T06:45:06.761Z</time>
      </trkpt>
      <trkpt lat="41.63853" lon="44.87444">
        <ele>505.414582</ele>
        <time>2021-10-17T06:46:46.784Z</time>
      </trkpt>
      <trkpt lat="41.63878" lon="44.87182">
        <ele>517.608663</ele>
        <time>2021-10-17T06:48:31.749Z</time>
      </trkpt>
      <trkpt lat="41.63925" lon="44.86925">
        <ele>527.917877</ele>
        <time>2021-10-17T06:50:21.734Z</time>
      </trkpt>
      <trkpt lat="41.64" lon="44.86673">
        <ele>538.359069</ele>
        <time>2021-10-17T06:56:35.747Z</time>
      </trkpt>
      <trkpt lat="41.64073" lon="44.86428">
        <ele>552.342844</ele>
        <time>2021-10-17T06:58:31.727Z</time>
      </trkpt>
      <trkpt lat="41.64137" lon="44.86179">
        <ele>564.608241</ele>
        <time>2021-10-17T07:00:27.735Z</time>
      </trkpt>
      <trkpt lat="41.64193" lon="44.85925">
        <ele>575.862136</ele>
        <time>2021-10-17T07:02:28.747Z</time>
      </trkpt>
      <trkpt lat="41.64249" lon="44.85673">
        <ele>581.740321</ele>
        <time>2021-10-17T07:04:32.739Z</time>
      </trkpt>
      <trkpt lat="41.64307" lon="44.85422">
        <ele>590.335014</ele>
        <time>2021-10-17T07:06:33.750Z</time>
      </trkpt>
      <trkpt lat="41.6436" lon="44.85169">
        <ele>596.589593</ele>
        <time>2021-10-17T07:08:27.729Z</time>
      </trkpt>
      <trkpt lat="41.64379" lon="44.8491">
        <ele>612.491912</ele>
        <time>2021-10-17T07:10:16.730Z</time>
      </trkpt>
      <trkpt lat="41.64369" lon="44.8465">
        <ele>623.799458</ele>
        <time>2021-10-17T07:12:08.723Z</time>
      </trkpt>
      <trkpt lat="41.64352" lon="44.84403">
        <ele>632.893421</ele>
        <time>2021-10-17T07:14:01.734Z</time>
      </trkpt>
      <trkpt lat="41.64336" lon="44.84148">
        <ele>642.412498</ele>
        <time>2021-10-17T07:15:56.726Z</time>
      </trkpt>
      <trkpt lat="41.64298" lon="44.8389">
        <ele>651.35283</ele>
        <time>2021-10-17T07:17:45.733Z</time>
      </trkpt>
      <trkpt lat="41.64195" lon="44.83659">
        <ele>650.408129</ele>
        <time>2021-10-17T07:19:05.741Z</time>
      </trkpt>
      <trkpt lat="41.64073" lon="44.83414">
        <ele>650.018735</ele>
        <time>2021-10-17T07:20:07.759Z</time>
      </trkpt>
      <trkpt lat="41.63949" lon="44.83167">
        <ele>654.343072</ele>
        <time>2021-10-17T07:21:15.745Z</time>
      </trkpt>
      <trkpt lat="41.63835" lon="44.82943">
        <ele>658.57909</ele>
        <time>2021-10-17T07:22:48.737Z</time>
      </trkpt>
      <trkpt lat="41.63735" lon="44.82709">
        <ele>660.720943</ele>
        <time>2021-10-17T07:24:10.741Z</time>
      </trkpt>
      <trkpt lat="41.63635" lon="44.82456">
        <ele>660.251592</ele>
        <time>2021-10-17T07:25:26.738Z</time>
      </trkpt>
      <trkpt lat="41.63537" lon="44.8222">
        <ele>666.932837</ele>
        <time>2021-10-17T07:26:45.726Z</time>
      </trkpt>
      <trkpt lat="41.63443" lon="44.81978">
        <ele>675.81195</ele>
        <time>2021-10-17T07:28:11.756Z</time>
      </trkpt>
      <trkpt lat="41.63343" lon="44.81729">
        <ele>677.869011</ele>
        <time>2021-10-17T07:29:25.738Z</time>
      </trkpt>
      <trkpt lat="41.63242" lon="44.81485">
        <ele>678.663252</ele>
        <time>2021-10-17T07:30:26.746Z</time>
      </trkpt>
      <trkpt lat="41.63134" lon="44.81222">
        <ele>675.507604</ele>
        <time>2021-10-17T07:31:26.729Z</time>
      </trkpt>
      <trkpt lat="41.63008" lon="44.80985">
        <ele>685.265664</ele>
        <time>2021-10-17T07:32:24.717Z</time>
      </trkpt>
      <trkpt lat="41.62858" lon="44.80793">
        <ele>689.18583</ele>
        <time>2021-10-17T07:33:25.742Z</time>
      </trkpt>
      <trkpt lat="41.62657" lon="44.8062">
        <ele>686.667184</ele>
        <time>2021-10-17T07:34:11.730Z</time>
      </trkpt>
      <trkpt lat="41.62475" lon="44.80376">
        <ele>670.735326</ele>
        <time>2021-10-17T07:34:51.735Z</time>
      </trkpt>
      <trkpt lat="41.62296" lon="44.80096">
        <ele>637.615976</ele>
        <time>2021-10-17T07:35:31.730Z</time>
      </trkpt>
      <trkpt lat="41.62162" lon="44.79842">
        <ele>610.34903</ele>
        <time>2021-10-17T07:36:05.722Z</time>
      </trkpt>
      <trkpt lat="41.6205" lon="44.79572">
        <ele>593.270268</ele>
        <time>2021-10-17T07:36:30.741Z</time>
      </trkpt>
      <trkpt lat="41.61797" lon="44.79339">
        <ele>579.438714</ele>
        <time>2021-10-17T07:37:10.755Z</time>
      </trkpt>
      <trkpt lat="41.61534" lon="44.79099">
        <ele>569.879943</ele>
        <time>2021-10-17T07:37:50.744Z</time>
      </trkpt>
      <trkpt lat="41.61307" lon="44.78885">
        <ele>564.739419</ele>
        <time>2021-10-17T07:38:30.758Z</time>
      </trkpt>
      <trkpt lat="41.61106" lon="44.78698">
        <ele>564.684567</ele>
        <time>2021-10-17T07:39:10.744Z</time>
      </trkpt>
      <trkpt lat="41.60921" lon="44.78531">
        <ele>564.750835</ele>
        <time>2021-10-17T07:40:00.742Z</time>
      </trkpt>
      <trkpt lat="41.60745" lon="44.78364">
        <ele>562.996166</ele>
        <time>2021-10-17T07:40:43.753Z</time>
      </trkpt>
      <trkpt lat="41.60565" lon="44.78195">
        <ele>564.574312</ele>
        <time>2021-10-17T07:41:45.752Z</time>
      </trkpt>
      <trkpt lat="41.60396" lon="44.7804">
        <ele>568.620319</ele>
        <time>2021-10-17T07:42:57.742Z</time>
      </trkpt>
      <trkpt lat="41.60224" lon="44.77899">
        <ele>576.445598</ele>
        <time>2021-10-17T07:44:22.769Z</time>
      </trkpt>
      <trkpt lat="41.60032" lon="44.77845">
        <ele>584.406219</ele>
        <time>2021-10-17T07:46:11.733Z</time>
      </trkpt>
      <trkpt lat="41.59838" lon="44.7788">
        <ele>599.00541</ele>
        <time>2021-10-17T07:48:13.741Z</time>
      </trkpt>
      <trkpt lat="41.5965" lon="44.7796">
        <ele>611.151028</ele>
        <time>2021-10-17T07:50:10.743Z</time>
      </trkpt>
      <trkpt lat="41.59456" lon="44.78012">
        <ele>621.936721</ele>
        <time>2021-10-17T07:52:11.732Z</time>
      </trkpt>
      <trkpt lat="41.59264" lon="44.78036">
        <ele>635.329234</ele>
        <time>2021-10-17T07:54:13.742Z</time>
      </trkpt>
      <trkpt lat="41.59064" lon="44.7801">
        <ele>638.657894</ele>
        <time>2021-10-17T07:55:38.748Z</time>
      </trkpt>
      <trkpt lat="41.58798" lon="44.77939">
        <ele>631.550234</ele>
        <time>2021-10-17T07:56:22.744Z</time>
      </trkpt>
      <trkpt lat="41.58505" lon="44.77855">
        <ele>624.785791</ele>
        <time>2021-10-17T07:56:58.744Z</time>
      </trkpt>
      <trkpt lat="41.58268" lon="44.77709">
        <ele>622.284049</ele>
        <time>2021-10-17T07:57:28.729Z</time>
      </trkpt>
      <trkpt lat="41.58026" lon="44.77476">
        <ele>615.574105</ele>
        <time>2021-10-17T07:58:05.749Z</time>
      </trkpt>
      <trkpt lat="41.57719" lon="44.77463">
        <ele>607.551583</ele>
        <time>2021-10-17T07:58:45.746Z</time>
      </trkpt>
      <trkpt lat="41.57422" lon="44.7748">
        <ele>597.957757</ele>
        <time>2021-10-17T07:59:21.743Z</time>
      </trkpt>
      <trkpt lat="41.571" lon="44.775">
        <ele>589.045072</ele>
        <time>2021-10-17T08:00:00.726Z</time>
      </trkpt>
      <trkpt lat="41.56782" lon="44.77533">
        <ele>580.242323</ele>
        <time>2021-10-17T08:00:40.743Z</time>
      </trkpt>
      <trkpt lat="41.56479" lon="44.77555">
        <ele>574.327364</ele>
        <time>2021-10-17T08:01:20.734Z</time>
      </trkpt>
      <trkpt lat="41.56148" lon="44.77572">
        <ele>569.521825</ele>
        <time>2021-10-17T08:02:00.773Z</time>
      </trkpt>
      <trkpt lat="41.55823" lon="44.77594">
        <ele>566.296059</ele>
        <time>2021-10-17T08:02:40.777Z</time>
      </trkpt>
      <trkpt lat="41.55543" lon="44.7761">
        <ele>559.629836</ele>
        <time>2021-10-17T08:03:13.731Z</time>
      </trkpt>
      <trkpt lat="41.55222" lon="44.77627">
        <ele>551.16471</ele>
        <time>2021-10-17T08:03:51.732Z</time>
      </trkpt>
      <trkpt lat="41.54909" lon="44.77636">
        <ele>544.488282</ele>
        <time>2021-10-17T08:04:31.736Z</time>
      </trkpt>
      <trkpt lat="41.54626" lon="44.77651">
        <ele>539.103038</ele>
        <time>2021-10-17T08:05:11.738Z</time>
      </trkpt>
      <trkpt lat="41.54345" lon="44.77668">
        <ele>536.080107</ele>
        <time>2021-10-17T08:05:51.728Z</time>
      </trkpt>
      <trkpt lat="41.54075" lon="44.77681">
        <ele>533.528791</ele>
        <time>2021-10-17T08:06:31.757Z</time>
      </trkpt>
      <trkpt lat="41.53802" lon="44.77694">
        <ele>528.693164</ele>
        <time>2021-10-17T08:07:11.747Z</time>
      </trkpt>
      <trkpt lat="41.53503" lon="44.77706">
        <ele>522.035089</ele>
        <time>2021-10-17T08:07:51.753Z</time>
      </trkpt>
      <trkpt lat="41.53211" lon="44.77703">
        <ele>514.669592</ele>
        <time>2021-10-17T08:08:31.733Z</time>
      </trkpt>
      <trkpt lat="41.52927" lon="44.77703">
        <ele>510.346732</ele>
        <time>2021-10-17T08:09:11.730Z</time>
      </trkpt>
      <trkpt lat="41.52665" lon="44.77704">
        <ele>511.37215</ele>
        <time>2021-10-17T08:09:51.753Z</time>
      </trkpt>
      <trkpt lat="41.52467" lon="44.77754">
        <ele>513.478062</ele>
        <time>2021-10-17T08:10:57.739Z</time>
      </trkpt>
      <trkpt lat="41.52272" lon="44.77845">
        <ele>515.937925</ele>
        <time>2021-10-17T08:12:17.737Z</time>
      </trkpt>
      <trkpt lat="41.52085" lon="44.77996">
        <ele>512.072477</ele>
        <time>2021-10-17T08:13:01.736Z</time>
      </trkpt>
      <trkpt lat="41.51912" lon="44.78156">
        <ele>509.293699</ele>
        <time>2021-10-17T08:13:41.749Z</time>
      </trkpt>
      <trkpt lat="41.51741" lon="44.78315">
        <ele>512.603666</ele>
        <time>2021-10-17T08:14:37.758Z</time>
      </trkpt>
      <trkpt lat="41.51593" lon="44.78508">
        <ele>519.17034</ele>
        <time>2021-10-17T08:15:48.786Z</time>
      </trkpt>
      <trkpt lat="41.51457" lon="44.78723">
        <ele>519.100642</ele>
        <time>2021-10-17T08:17:00.742Z</time>
      </trkpt>
      <trkpt lat="41.51311" lon="44.7891">
        <ele>524.571099</ele>
        <time>2021-10-17T08:18:04.745Z</time>
      </trkpt>
      <trkpt lat="41.51134" lon="44.79105">
        <ele>522.427635</ele>
        <time>2021-10-17T08:19:04.741Z</time>
      </trkpt>
      <trkpt lat="41.50958" lon="44.79294">
        <ele>521.417919</ele>
        <time>2021-10-17T08:19:46.761Z</time>
      </trkpt>
      <trkpt lat="41.50771" lon="44.79493">
        <ele>521.384867</ele>
        <time>2021-10-17T08:20:26.743Z</time>
      </trkpt>
      <trkpt lat="41.50593" lon="44.79678">
        <ele>523.554036</ele>
        <time>2021-10-17T08:31:31.713Z</time>
      </trkpt>
      <trkpt lat="41.50443" lon="44.79921">
        <ele>516.622893</ele>
        <time>2021-10-17T08:32:11.725Z</time>
      </trkpt>
      <trkpt lat="41.50236" lon="44.80224">
        <ele>506.233504</ele>
        <time>2021-10-17T08:32:51.750Z</time>
      </trkpt>
      <trkpt lat="41.49962" lon="44.80334">
        <ele>489.542263</ele>
        <time>2021-10-17T08:33:28.750Z</time>
      </trkpt>
      <trkpt lat="41.49693" lon="44.80244">
        <ele>472.244375</ele>
        <time>2021-10-17T08:34:08.733Z</time>
      </trkpt>
      <trkpt lat="41.49423" lon="44.80195">
        <ele>463.221538</ele>
        <time>2021-10-17T08:34:48.789Z</time>
      </trkpt>
      <trkpt lat="41.49189" lon="44.80246">
        <ele>452.952231</ele>
        <time>2021-10-17T08:35:30.727Z</time>
      </trkpt>
      <trkpt lat="41.48986" lon="44.80026">
        <ele>442.513445</ele>
        <time>2021-10-17T08:36:10.726Z</time>
      </trkpt>
      <trkpt lat="41.48814" lon="44.79872">
        <ele>444.788326</ele>
        <time>2021-10-17T08:36:49.729Z</time>
      </trkpt>
      <trkpt lat="41.48624" lon="44.79951">
        <ele>450.111962</ele>
        <time>2021-10-17T08:37:36.748Z</time>
      </trkpt>
      <trkpt lat="41.48436" lon="44.80093">
        <ele>453.383121</ele>
        <time>2021-10-17T08:38:29.726Z</time>
      </trkpt>
      <trkpt lat="41.48241" lon="44.80098">
        <ele>445.058591</ele>
        <time>2021-10-17T08:41:26.817Z</time>
      </trkpt>
      <trkpt lat="41.48045" lon="44.7999">
        <ele>440.667843</ele>
        <time>2021-10-17T08:42:08.783Z</time>
      </trkpt>
      <trkpt lat="41.47851" lon="44.79884">
        <ele>437.880057</ele>
        <time>2021-10-17T08:43:00.746Z</time>
      </trkpt>
      <trkpt lat="41.47708" lon="44.79971">
        <ele>431.177438</ele>
        <time>2021-10-17T08:43:52.786Z</time>
      </trkpt>
      <trkpt lat="41.47666" lon="44.80265">
        <ele>429.025167</ele>
        <time>2021-10-17T08:44:44.759Z</time>
      </trkpt>
      <trkpt lat="41.47458" lon="44.80372">
        <ele>425.226344</ele>
        <time>2021-10-17T08:45:26.769Z</time>
      </trkpt>
      <trkpt lat="41.47242" lon="44.80458">
        <ele>424.60339</ele>
        <time>2021-10-17T08:46:06.737Z</time>
      </trkpt>
      <trkpt lat="41.47019" lon="44.80477">
        <ele>421.636645</ele>
        <time>2021-10-17T08:46:46.731Z</time>
      </trkpt>
      <trkpt lat="41.46777" lon="44.80446">
        <ele>416.8916</ele>
        <time>2021-10-17T08:47:26.748Z</time>
      </trkpt>
      <trkpt lat="41.46559" lon="44.80468">
        <ele>416.381446</ele>
        <time>2021-10-17T08:48:06.744Z</time>
      </trkpt>
      <trkpt lat="41.46446" lon="44.80713">
        <ele>417.229829</ele>
        <time>2021-10-17T08:48:46.730Z</time>
      </trkpt>
      <trkpt lat="41.46295" lon="44.80879">
        <ele>415.751851</ele>
        <time>2021-10-17T08:49:26.745Z</time>
      </trkpt>
      <trkpt lat="41.46079" lon="44.80959">
        <ele>416.035444</ele>
        <time>2021-10-17T08:50:06.741Z</time>
      </trkpt>
      <trkpt lat="41.4586" lon="44.81063">
        <ele>410.858466</ele>
        <time>2021-10-17T08:50:46.783Z</time>
      </trkpt>
      <trkpt lat="41.45632" lon="44.8115">
        <ele>405.095593</ele>
        <time>2021-10-17T08:51:26.737Z</time>
      </trkpt>
      <trkpt lat="41.45415" lon="44.81234">
        <ele>404.921864</ele>
        <time>2021-10-17T08:52:06.732Z</time>
      </trkpt>
      <trkpt lat="41.45216" lon="44.81306">
        <ele>405.006633</ele>
        <time>2021-10-17T08:52:44.759Z</time>
      </trkpt>
      <trkpt lat="41.44999" lon="44.81389">
        <ele>403.96269</ele>
        <time>2021-10-17T08:53:24.742Z</time>
      </trkpt>
      <trkpt lat="41.44777" lon="44.81472">
        <ele>399.740609</ele>
        <time>2021-10-17T08:54:04.745Z</time>
      </trkpt>
      <trkpt lat="41.44548" lon="44.81557">
        <ele>394.84122</ele>
        <time>2021-10-17T08:54:44.744Z</time>
      </trkpt>
      <trkpt lat="41.44317" lon="44.81644">
        <ele>394.178939</ele>
        <time>2021-10-17T08:55:24.750Z</time>
      </trkpt>
      <trkpt lat="41.44084" lon="44.81727">
        <ele>396.190259</ele>
        <time>2021-10-17T08:56:04.744Z</time>
      </trkpt>
      <trkpt lat="41.43872" lon="44.81805">
        <ele>394.952532</ele>
        <time>2021-10-17T08:56:44.769Z</time>
      </trkpt>
      <trkpt lat="41.43648" lon="44.81898">
        <ele>387.993313</ele>
        <time>2021-10-17T08:57:25.738Z</time>
      </trkpt>
      <trkpt lat="41.43411" lon="44.81987">
        <ele>386.681154</ele>
        <time>2021-10-17T08:58:05.752Z</time>
      </trkpt>
      <trkpt lat="41.43178" lon="44.82073">
        <ele>388.240367</ele>
        <time>2021-10-17T08:58:45.727Z</time>
      </trkpt>
      <trkpt lat="41.4294" lon="44.82162">
        <ele>385.470062</ele>
        <time>2021-10-17T08:59:25.754Z</time>
      </trkpt>
      <trkpt lat="41.42705" lon="44.8225">
        <ele>381.959514</ele>
        <time>2021-10-17T09:00:05.749Z</time>
      </trkpt>
      <trkpt lat="41.42483" lon="44.82334">
        <ele>380.372025</ele>
        <time>2021-10-17T09:00:45.743Z</time>
      </trkpt>
      <trkpt lat="41.42265" lon="44.82415">
        <ele>378.949894</ele>
        <time>2021-10-17T09:01:25.738Z</time>
      </trkpt>
      <trkpt lat="41.42053" lon="44.82494">
        <ele>375.693711</ele>
        <time>2021-10-17T09:02:05.729Z</time>
      </trkpt>
      <trkpt lat="41.41833" lon="44.82574">
        <ele>374.243805</ele>
        <time>2021-10-17T09:02:45.726Z</time>
      </trkpt>
      <trkpt lat="41.41628" lon="44.82657">
        <ele>374.377138</ele>
        <time>2021-10-17T09:03:26.755Z</time>
      </trkpt>
      <trkpt lat="41.41437" lon="44.82787">
        <ele>372.994574</ele>
        <time>2021-10-17T09:04:06.774Z</time>
      </trkpt>
      <trkpt lat="41.41237" lon="44.82939">
        <ele>369.233617</ele>
        <time>2021-10-17T09:04:46.734Z</time>
      </trkpt>
      <trkpt lat="41.41019" lon="44.83117">
        <ele>362.771551</ele>
        <time>2021-10-17T09:05:24.740Z</time>
      </trkpt>
      <trkpt lat="41.40758" lon="44.83115">
        <ele>361.965561</ele>
        <time>2021-10-17T09:06:04.722Z</time>
      </trkpt>
      <trkpt lat="41.40513" lon="44.83069">
        <ele>361.845603</ele>
        <time>2021-10-17T09:06:44.732Z</time>
      </trkpt>
      <trkpt lat="41.40308" lon="44.82985">
        <ele>362.898976</ele>
        <time>2021-10-17T09:07:24.750Z</time>
      </trkpt>
      <trkpt lat="41.40176" lon="44.82774">
        <ele>371.659801</ele>
        <time>2021-10-17T09:08:37.784Z</time>
      </trkpt>
      <trkpt lat="41.4007" lon="44.82537">
        <ele>375.968157</ele>
        <time>2021-10-17T09:09:49.744Z</time>
      </trkpt>
      <trkpt lat="41.39904" lon="44.82465">
        <ele>369.479741</ele>
        <time>2021-10-17T09:10:54.739Z</time>
      </trkpt>
      <trkpt lat="41.39692" lon="44.82591">
        <ele>362.821248</ele>
        <time>2021-10-17T09:11:50.745Z</time>
      </trkpt>
      <trkpt lat="41.39498" lon="44.82708">
        <ele>363.087339</ele>
        <time>2021-10-17T09:12:36.723Z</time>
      </trkpt>
      <trkpt lat="41.39283" lon="44.82779">
        <ele>372.153031</ele>
        <time>2021-10-17T09:13:37.745Z</time>
      </trkpt>
      <trkpt lat="41.39062" lon="44.82821">
        <ele>374.832582</ele>
        <time>2021-10-17T09:14:36.780Z</time>
      </trkpt>
      <trkpt lat="41.38843" lon="44.82871">
        <ele>375.585463</ele>
        <time>2021-10-17T09:15:36.737Z</time>
      </trkpt>
      <trkpt lat="41.38622" lon="44.82924">
        <ele>376.003098</ele>
        <time>2021-10-17T09:16:36.749Z</time>
      </trkpt>
      <trkpt lat="41.38407" lon="44.83008">
        <ele>375.521802</ele>
        <time>2021-10-17T09:17:36.745Z</time>
      </trkpt>
      <trkpt lat="41.38181" lon="44.83105">
        <ele>375.394294</ele>
        <time>2021-10-17T09:18:34.745Z</time>
      </trkpt>
      <trkpt lat="41.37989" lon="44.83201">
        <ele>374.918147</ele>
        <time>2021-10-17T09:19:14.737Z</time>
      </trkpt>
      <trkpt lat="41.37778" lon="44.83318">
        <ele>377.414979</ele>
        <time>2021-10-17T09:20:06.745Z</time>
      </trkpt>
      <trkpt lat="41.3757" lon="44.83414">
        <ele>380.544497</ele>
        <time>2021-10-17T09:20:57.748Z</time>
      </trkpt>
      <trkpt lat="41.37357" lon="44.83499">
        <ele>383.92798</ele>
        <time>2021-10-17T09:21:56.752Z</time>
      </trkpt>
      <trkpt lat="41.37168" lon="44.83596">
        <ele>387.910329</ele>
        <time>2021-10-17T09:23:17.743Z</time>
      </trkpt>
      <trkpt lat="41.36979" lon="44.83712">
        <ele>386.865119</ele>
        <time>2021-10-17T09:24:01.725Z</time>
      </trkpt>
      <trkpt lat="41.36791" lon="44.83835">
        <ele>385.925643</ele>
        <time>2021-10-17T09:24:47.729Z</time>
      </trkpt>
      <trkpt lat="41.36636" lon="44.84029">
        <ele>386.037965</ele>
        <time>2021-10-17T09:25:29.719Z</time>
      </trkpt>
      <trkpt lat="41.36475" lon="44.83866">
        <ele>398.177693</ele>
        <time>2021-10-17T09:26:53.755Z</time>
      </trkpt>
      <trkpt lat="41.36311" lon="44.83697">
        <ele>399.634442</ele>
        <time>2021-10-17T09:28:07.742Z</time>
      </trkpt>
      <trkpt lat="41.36139" lon="44.83522">
        <ele>396.246334</ele>
        <time>2021-10-17T09:28:50.744Z</time>
      </trkpt>
      <trkpt lat="41.35951" lon="44.83342">
        <ele>393.062248</ele>
        <time>2021-10-17T09:29:42.746Z</time>
      </trkpt>
      <trkpt lat="41.35797" lon="44.83179">
        <ele>395.459887</ele>
        <time>2021-10-17T09:30:24.782Z</time>
      </trkpt>
      <trkpt lat="41.35649" lon="44.82991">
        <ele>403.944566</ele>
        <time>2021-10-17T09:31:14.772Z</time>
      </trkpt>
      <trkpt lat="41.3553" lon="44.82763">
        <ele>409.302959</ele>
        <time>2021-10-17T09:32:26.746Z</time>
      </trkpt>
      <trkpt lat="41.35436" lon="44.82513">
        <ele>411.872943</ele>
        <time>2021-10-17T09:34:01.762Z</time>
      </trkpt>
      <trkpt lat="41.35374" lon="44.8226">
        <ele>416.028455</ele>
        <time>2021-10-17T09:35:44.752Z</time>
      </trkpt>
      <trkpt lat="41.35226" lon="44.82066">
        <ele>414.342358</ele>
        <time>2021-10-17T09:37:01.726Z</time>
      </trkpt>
      <trkpt lat="41.34993" lon="44.81886">
        <ele>406.857385</ele>
        <time>2021-10-17T09:37:41.746Z</time>
      </trkpt>
      <trkpt lat="41.34809" lon="44.81747">
        <ele>405.600869</ele>
        <time>2021-10-17T09:38:25.729Z</time>
      </trkpt>
      <trkpt lat="41.34629" lon="44.81617">
        <ele>405.364897</ele>
        <time>2021-10-17T09:39:07.742Z</time>
      </trkpt>
      <trkpt lat="41.34421" lon="44.81458">
        <ele>405.874997</ele>
        <time>2021-10-17T09:40:02.742Z</time>
      </trkpt>
      <trkpt lat="41.34222" lon="44.81306">
        <ele>404.70911</ele>
        <time>2021-10-17T09:40:43.744Z</time>
      </trkpt>
      <trkpt lat="41.34033" lon="44.81164">
        <ele>402.181119</ele>
        <time>2021-10-17T09:41:23.748Z</time>
      </trkpt>
      <trkpt lat="41.33863" lon="44.81035">
        <ele>402.556378</ele>
        <time>2021-10-17T09:42:05.753Z</time>
      </trkpt>
      <trkpt lat="41.33674" lon="44.80892">
        <ele>403.583838</ele>
        <time>2021-10-17T09:42:53.743Z</time>
      </trkpt>
      <trkpt lat="41.33495" lon="44.80754">
        <ele>405.231724</ele>
        <time>2021-10-17T09:43:38.738Z</time>
      </trkpt>
      <trkpt lat="41.33317" lon="44.80617">
        <ele>404.960964</ele>
        <time>2021-10-17T09:44:24.741Z</time>
      </trkpt>
      <trkpt lat="41.33125" lon="44.8047">
        <ele>406.284991</ele>
        <time>2021-10-17T09:45:14.730Z</time>
      </trkpt>
      <trkpt lat="41.32945" lon="44.80306">
        <ele>405.122038</ele>
        <time>2021-10-17T09:45:57.742Z</time>
      </trkpt>
      <trkpt lat="41.3277" lon="44.8019">
        <ele>406.264162</ele>
        <time>2021-10-17T09:46:37.759Z</time>
      </trkpt>
      <trkpt lat="41.32566" lon="44.80052">
        <ele>411.00841</ele>
        <time>2021-10-17T09:47:17.758Z</time>
      </trkpt>
      <trkpt lat="41.32376" lon="44.79954">
        <ele>409.711753</ele>
        <time>2021-10-17T09:47:57.741Z</time>
      </trkpt>
      <trkpt lat="41.3222" lon="44.79773">
        <ele>409.690392</ele>
        <time>2021-10-17T09:48:39.767Z</time>
      </trkpt>
      <trkpt lat="41.32028" lon="44.79621">
        <ele>408.961568</ele>
        <time>2021-10-17T09:49:31.748Z</time>
      </trkpt>
      <trkpt lat="41.31835" lon="44.79486">
        <ele>411.013634</ele>
        <time>2021-10-17T09:50:21.742Z</time>
      </trkpt>
      <trkpt lat="41.31652" lon="44.79351">
        <ele>411.290481</ele>
        <time>2021-10-17T09:51:07.759Z</time>
      </trkpt>
      <trkpt lat="41.31449" lon="44.7933">
        <ele>408.712102</ele>
        <time>2021-10-17T09:51:48.752Z</time>
      </trkpt>
      <trkpt lat="41.31248" lon="44.79267">
        <ele>409.970899</ele>
        <time>2021-10-17T09:52:28.740Z</time>
      </trkpt>
      <trkpt lat="41.3105" lon="44.79211">
        <ele>409.74311</ele>
        <time>2021-10-17T09:53:08.733Z</time>
      </trkpt>
      <trkpt lat="41.3083" lon="44.79166">
        <ele>412.882186</ele>
        <time>2021-10-17T09:53:59.744Z</time>
      </trkpt>
      <trkpt lat="41.30609" lon="44.7912">
        <ele>414.423444</ele>
        <time>2021-10-17T09:54:50.742Z</time>
      </trkpt>
      <trkpt lat="41.30419" lon="44.78992">
        <ele>416.309182</ele>
        <time>2021-10-17T09:55:31.747Z</time>
      </trkpt>
      <trkpt lat="41.30223" lon="44.78966">
        <ele>413.288204</ele>
        <time>2021-10-17T09:56:09.744Z</time>
      </trkpt>
      <trkpt lat="41.30029" lon="44.78926">
        <ele>413.68936</ele>
        <time>2021-10-17T09:56:51.766Z</time>
      </trkpt>
      <trkpt lat="41.29819" lon="44.78888">
        <ele>417.654389</ele>
        <time>2021-10-17T09:57:33.736Z</time>
      </trkpt>
      <trkpt lat="41.29615" lon="44.78893">
        <ele>422.544866</ele>
        <time>2021-10-17T09:58:51.732Z</time>
      </trkpt>
      <trkpt lat="41.29407" lon="44.78805">
        <ele>425.077818</ele>
        <time>2021-10-17T09:59:52.749Z</time>
      </trkpt>
      <trkpt lat="41.29182" lon="44.78802">
        <ele>425.251583</ele>
        <time>2021-10-17T10:00:45.773Z</time>
      </trkpt>
      <trkpt lat="41.28965" lon="44.78846">
        <ele>421.873923</ele>
        <time>2021-10-17T10:01:29.756Z</time>
      </trkpt>
      <trkpt lat="41.28767" lon="44.78919">
        <ele>421.836437</ele>
        <time>2021-10-17T10:02:10.751Z</time>
      </trkpt>
      <trkpt lat="41.28564" lon="44.79005">
        <ele>425.412101</ele>
        <time>2021-10-17T10:03:07.787Z</time>
      </trkpt>
      <trkpt lat="41.28342" lon="44.79062">
        <ele>425.42714</ele>
        <time>2021-10-17T10:03:52.782Z</time>
      </trkpt>
      <trkpt lat="41.28119" lon="44.79087">
        <ele>429.051789</ele>
        <time>2021-10-17T10:04:56.754Z</time>
      </trkpt>
      <trkpt lat="41.27874" lon="44.7908">
        <ele>427.837888</ele>
        <time>2021-10-17T10:05:39.742Z</time>
      </trkpt>
      <trkpt lat="41.27656" lon="44.79088">
        <ele>428.089224</ele>
        <time>2021-10-17T10:06:26.727Z</time>
      </trkpt>
      <trkpt lat="41.27431" lon="44.79048">
        <ele>428.345147</ele>
        <time>2021-10-17T10:07:20.773Z</time>
      </trkpt>
      <trkpt lat="41.27202" lon="44.7906">
        <ele>433.734722</ele>
        <time>2021-10-17T10:08:16.730Z</time>
      </trkpt>
      <trkpt lat="41.26996" lon="44.79081">
        <ele>433.936968</ele>
        <time>2021-10-17T10:09:00.801Z</time>
      </trkpt>
      <trkpt lat="41.26785" lon="44.79134">
        <ele>436.411447</ele>
        <time>2021-10-17T10:10:05.754Z</time>
      </trkpt>
      <trkpt lat="41.26572" lon="44.79229">
        <ele>437.595522</ele>
        <time>2021-10-17T10:11:02.747Z</time>
      </trkpt>
      <trkpt lat="41.26406" lon="44.79424">
        <ele>437.699864</ele>
        <time>2021-10-17T10:11:54.746Z</time>
      </trkpt>
      <trkpt lat="41.26227" lon="44.79525">
        <ele>440.924234</ele>
        <time>2021-10-17T10:12:36.752Z</time>
      </trkpt>
      <trkpt lat="41.26018" lon="44.79617">
        <ele>440.590834</ele>
        <time>2021-10-17T10:13:26.734Z</time>
      </trkpt>
      <trkpt lat="41.25814" lon="44.79689">
        <ele>439.132709</ele>
        <time>2021-10-17T10:14:12.748Z</time>
      </trkpt>
      <trkpt lat="41.25626" lon="44.79794">
        <ele>440.005934</ele>
        <time>2021-10-17T10:14:55.747Z</time>
      </trkpt>
      <trkpt lat="41.2546" lon="44.79971">
        <ele>441.428699</ele>
        <time>2021-10-17T10:15:38.742Z</time>
      </trkpt>
      <trkpt lat="41.25251" lon="44.79962">
        <ele>442.027288</ele>
        <time>2021-10-17T10:16:23.779Z</time>
      </trkpt>
      <trkpt lat="41.25044" lon="44.79982">
        <ele>440.777585</ele>
        <time>2021-10-17T10:17:06.758Z</time>
      </trkpt>
      <trkpt lat="41.2482" lon="44.79963">
        <ele>447.483192</ele>
        <time>2021-10-17T10:17:59.744Z</time>
      </trkpt>
      <trkpt lat="41.24624" lon="44.7991">
        <ele>453.640985</ele>
        <time>2021-10-17T10:18:59.731Z</time>
      </trkpt>
      <trkpt lat="41.24459" lon="44.7978">
        <ele>458.98917</ele>
        <time>2021-10-17T10:20:09.741Z</time>
      </trkpt>
      <trkpt lat="41.24265" lon="44.79861">
        <ele>464.954904</ele>
        <time>2021-10-17T10:21:38.748Z</time>
      </trkpt>
      <trkpt lat="41.24087" lon="44.80027">
        <ele>464.374854</ele>
        <time>2021-10-17T10:22:44.740Z</time>
      </trkpt>
      <trkpt lat="41.23908" lon="44.80213">
        <ele>464.588246</ele>
        <time>2021-10-17T10:23:36.784Z</time>
      </trkpt>
      <trkpt lat="41.23748" lon="44.8039">
        <ele>470.438783</ele>
        <time>2021-10-17T10:24:46.744Z</time>
      </trkpt>
      <trkpt lat="41.23643" lon="44.80619">
        <ele>473.851996</ele>
        <time>2021-10-17T10:26:05.756Z</time>
      </trkpt>
      <trkpt lat="41.23519" lon="44.80909">
        <ele>467.076541</ele>
        <time>2021-10-17T10:26:50.721Z</time>
      </trkpt>
      <trkpt lat="41.2341" lon="44.81141">
        <ele>458.680168</ele>
        <time>2021-10-17T10:27:11.753Z</time>
      </trkpt>
      <trkpt lat="41.23343" lon="44.81432">
        <ele>457.027015</ele>
        <time>2021-10-17T10:28:01.772Z</time>
      </trkpt>
      <trkpt lat="41.23232" lon="44.81685">
        <ele>460.657865</ele>
        <time>2021-10-17T10:28:48.748Z</time>
      </trkpt>
      <trkpt lat="41.23103" lon="44.81902">
        <ele>459.641816</ele>
        <time>2021-10-17T10:29:30.758Z</time>
      </trkpt>
      <trkpt lat="41.22995" lon="44.82153">
        <ele>456.026357</ele>
        <time>2021-10-17T10:30:18.755Z</time>
      </trkpt>
      <trkpt lat="41.22883" lon="44.8245">
        <ele>449.917575</ele>
        <time>2021-10-17T10:30:58.749Z</time>
      </trkpt>
      <trkpt lat="41.2283" lon="44.82759">
        <ele>449.265237</ele>
        <time>2021-10-17T10:31:52.749Z</time>
      </trkpt>
      <trkpt lat="41.22777" lon="44.83028">
        <ele>458.7595</ele>
        <time>2021-10-17T10:33:18.727Z</time>
      </trkpt>
      <trkpt lat="41.22842" lon="44.83283">
        <ele>461.871193</ele>
        <time>2021-10-17T10:38:59.742Z</time>
      </trkpt>
      <trkpt lat="41.2301" lon="44.8345">
        <ele>462.836534</ele>
        <time>2021-10-17T10:39:49.727Z</time>
      </trkpt>
      <trkpt lat="41.23121" lon="44.83649">
        <ele>467.33648</ele>
        <time>2021-10-17T10:46:01.737Z</time>
      </trkpt>
      <trkpt lat="41.2312" lon="44.83804">
        <ele>468.250594</ele>
        <time>2021-10-17T10:49:30.743Z</time>
      </trkpt>
      <trkpt lat="41.23025" lon="44.8365">
        <ele>464.880639</ele>
        <time>2021-10-17T10:53:03.736Z</time>
      </trkpt>
      <trkpt lat="41.22987" lon="44.83575">
        <ele>464.880639</ele>
        <time>2021-10-17T11:12:11.942Z</time>
      </trkpt>
    </trkseg>
  </trk>
</gpx>